sensor_id;sensor_type;location;lat;lon;timestamp;P1;durP1;ratioP1;P2;durP2;ratioP2
3789;SDS011;1910;49.042;9.028;2023-04-23T00:01:57;5.60;;;4.00;;
3789;SDS011;1910;49.042;9.028;2023-04-23T00:04:24;7.67;;;4.37;;
3789;SDS011;1910;49.042;9.028;2023-04-23T00:06:50;7.20;;;4.15;;
3789;SDS011;1910;49.042;9.028;2023-04-23T00:09:16;6.75;;;4.47;;
3789;SDS011;1910;49.042;9.028;2023-04-23T00:11:42;5.45;;;4.25;;
3789;SDS011;1910;49.042;9.028;2023-04-23T00:14:09;7.53;;;4.20;;
3789;SDS011;1910;49.042;9.028;2023-04-23T00:16:35;6.18;;;3.65;;
3789;SDS011;1910;49.042;9.028;2023-04-23T00:19:01;5.90;;;4.60;;
3789;SDS011;1910;49.042;9.028;2023-04-23T00:21:27;7.00;;;4.13;;
3789;SDS011;1910;49.042;9.028;2023-04-23T00:23:53;9.83;;;4.30;;
3789;SDS011;1910;49.042;9.028;2023-04-23T00:26:19;6.18;;;4.10;;
3789;SDS011;1910;49.042;9.028;2023-04-23T00:28:45;7.00;;;4.47;;
3789;SDS011;1910;49.042;9.028;2023-04-23T00:31:11;4.87;;;4.00;;
3789;SDS011;1910;49.042;9.028;2023-04-23T00:33:37;9.13;;;5.10;;
3789;SDS011;1910;49.042;9.028;2023-04-23T00:36:03;11.67;;;4.57;;
3789;SDS011;1910;49.042;9.028;2023-04-23T00:38:29;9.02;;;5.50;;
3789;SDS011;1910;49.042;9.028;2023-04-23T00:40:55;6.97;;;4.63;;
3789;SDS011;1910;49.042;9.028;2023-04-23T00:43:21;6.43;;;4.53;;
3789;SDS011;1910;49.042;9.028;2023-04-23T00:45:48;6.25;;;4.68;;
3789;SDS011;1910;49.042;9.028;2023-04-23T00:48:14;11.75;;;4.40;;
3789;SDS011;1910;49.042;9.028;2023-04-23T00:50:40;7.32;;;4.65;;
3789;SDS011;1910;49.042;9.028;2023-04-23T00:53:06;8.33;;;4.73;;
3789;SDS011;1910;49.042;9.028;2023-04-23T00:55:32;5.97;;;4.88;;
3789;SDS011;1910;49.042;9.028;2023-04-23T00:57:59;5.82;;;3.55;;
3789;SDS011;1910;49.042;9.028;2023-04-23T01:00:24;9.07;;;3.97;;
3789;SDS011;1910;49.042;9.028;2023-04-23T01:02:51;5.60;;;3.80;;
3789;SDS011;1910;49.042;9.028;2023-04-23T01:05:17;4.72;;;3.65;;
3789;SDS011;1910;49.042;9.028;2023-04-23T01:07:46;4.40;;;3.53;;
3789;SDS011;1910;49.042;9.028;2023-04-23T01:10:12;15.83;;;4.50;;
3789;SDS011;1910;49.042;9.028;2023-04-23T01:12:38;7.28;;;4.82;;
3789;SDS011;1910;49.042;9.028;2023-04-23T01:15:04;8.00;;;4.73;;
3789;SDS011;1910;49.042;9.028;2023-04-23T01:17:31;6.47;;;4.57;;
3789;SDS011;1910;49.042;9.028;2023-04-23T01:19:58;8.48;;;5.20;;
3789;SDS011;1910;49.042;9.028;2023-04-23T01:22:24;13.10;;;5.47;;
3789;SDS011;1910;49.042;9.028;2023-04-23T01:24:50;9.20;;;5.70;;
3789;SDS011;1910;49.042;9.028;2023-04-23T01:27:16;9.75;;;5.50;;
3789;SDS011;1910;49.042;9.028;2023-04-23T01:29:43;14.73;;;4.40;;
3789;SDS011;1910;49.042;9.028;2023-04-23T01:32:11;10.15;;;5.75;;
3789;SDS011;1910;49.042;9.028;2023-04-23T01:34:37;8.27;;;5.10;;
3789;SDS011;1910;49.042;9.028;2023-04-23T01:37:03;4.73;;;4.10;;
3789;SDS011;1910;49.042;9.028;2023-04-23T01:39:29;12.52;;;5.30;;
3789;SDS011;1910;49.042;9.028;2023-04-23T01:41:55;6.83;;;4.50;;
3789;SDS011;1910;49.042;9.028;2023-04-23T01:44:21;6.47;;;5.38;;
3789;SDS011;1910;49.042;9.028;2023-04-23T01:46:47;9.83;;;5.23;;
3789;SDS011;1910;49.042;9.028;2023-04-23T01:49:13;8.37;;;5.13;;
3789;SDS011;1910;49.042;9.028;2023-04-23T01:51:38;11.57;;;5.43;;
3789;SDS011;1910;49.042;9.028;2023-04-23T01:54:04;9.93;;;4.90;;
3789;SDS011;1910;49.042;9.028;2023-04-23T01:56:30;8.30;;;4.53;;
3789;SDS011;1910;49.042;9.028;2023-04-23T01:58:58;5.45;;;4.13;;
3789;SDS011;1910;49.042;9.028;2023-04-23T02:01:25;10.95;;;4.40;;
3789;SDS011;1910;49.042;9.028;2023-04-23T02:04:06;5.68;;;3.70;;
3789;SDS011;1910;49.042;9.028;2023-04-23T02:06:31;5.40;;;4.00;;
3789;SDS011;1910;49.042;9.028;2023-04-23T02:08:57;4.13;;;3.73;;
3789;SDS011;1910;49.042;9.028;2023-04-23T02:11:23;5.03;;;3.17;;
3789;SDS011;1910;49.042;9.028;2023-04-23T02:13:48;6.80;;;3.73;;
3789;SDS011;1910;49.042;9.028;2023-04-23T02:16:14;8.50;;;3.90;;
3789;SDS011;1910;49.042;9.028;2023-04-23T02:18:40;6.43;;;3.73;;
3789;SDS011;1910;49.042;9.028;2023-04-23T02:21:06;3.83;;;3.37;;
3789;SDS011;1910;49.042;9.028;2023-04-23T02:23:32;6.13;;;4.57;;
3789;SDS011;1910;49.042;9.028;2023-04-23T02:25:58;5.03;;;3.83;;
3789;SDS011;1910;49.042;9.028;2023-04-23T02:28:24;4.33;;;3.37;;
3789;SDS011;1910;49.042;9.028;2023-04-23T02:30:49;4.60;;;3.03;;
3789;SDS011;1910;49.042;9.028;2023-04-23T02:33:15;6.50;;;3.90;;
3789;SDS011;1910;49.042;9.028;2023-04-23T02:35:40;5.70;;;3.60;;
3789;SDS011;1910;49.042;9.028;2023-04-23T02:38:06;6.60;;;3.20;;
3789;SDS011;1910;49.042;9.028;2023-04-23T02:40:32;4.10;;;3.03;;
3789;SDS011;1910;49.042;9.028;2023-04-23T02:42:58;4.70;;;3.20;;
3789;SDS011;1910;49.042;9.028;2023-04-23T02:45:24;5.50;;;3.10;;
3789;SDS011;1910;49.042;9.028;2023-04-23T02:47:49;5.03;;;2.90;;
3789;SDS011;1910;49.042;9.028;2023-04-23T02:50:17;3.55;;;2.80;;
3789;SDS011;1910;49.042;9.028;2023-04-23T02:52:43;4.33;;;2.90;;
3789;SDS011;1910;49.042;9.028;2023-04-23T02:55:09;2.87;;;2.50;;
3789;SDS011;1910;49.042;9.028;2023-04-23T02:57:35;4.83;;;2.93;;
3789;SDS011;1910;49.042;9.028;2023-04-23T03:00:01;3.22;;;2.40;;
3789;SDS011;1910;49.042;9.028;2023-04-23T03:02:30;4.10;;;3.00;;
3789;SDS011;1910;49.042;9.028;2023-04-23T03:04:56;3.77;;;3.07;;
3789;SDS011;1910;49.042;9.028;2023-04-23T03:07:22;2.80;;;2.53;;
3789;SDS011;1910;49.042;9.028;2023-04-23T03:09:48;6.47;;;2.87;;
3789;SDS011;1910;49.042;9.028;2023-04-23T03:12:14;4.47;;;2.65;;
3789;SDS011;1910;49.042;9.028;2023-04-23T03:14:40;3.47;;;2.80;;
3789;SDS011;1910;49.042;9.028;2023-04-23T03:17:06;4.00;;;2.70;;
3789;SDS011;1910;49.042;9.028;2023-04-23T03:19:32;2.90;;;2.47;;
3789;SDS011;1910;49.042;9.028;2023-04-23T03:21:58;3.10;;;2.60;;
3789;SDS011;1910;49.042;9.028;2023-04-23T03:24:27;4.70;;;2.72;;
3789;SDS011;1910;49.042;9.028;2023-04-23T03:26:55;2.55;;;2.35;;
3789;SDS011;1910;49.042;9.028;2023-04-23T03:29:22;4.15;;;2.65;;
3789;SDS011;1910;49.042;9.028;2023-04-23T03:31:48;3.30;;;2.30;;
3789;SDS011;1910;49.042;9.028;2023-04-23T03:34:13;4.73;;;2.33;;
3789;SDS011;1910;49.042;9.028;2023-04-23T03:36:40;2.43;;;1.93;;
3789;SDS011;1910;49.042;9.028;2023-04-23T03:39:05;3.27;;;2.07;;
3789;SDS011;1910;49.042;9.028;2023-04-23T03:41:31;1.75;;;1.65;;
3789;SDS011;1910;49.042;9.028;2023-04-23T03:43:57;2.80;;;1.73;;
3789;SDS011;1910;49.042;9.028;2023-04-23T03:46:23;2.57;;;1.93;;
3789;SDS011;1910;49.042;9.028;2023-04-23T03:48:49;2.10;;;1.50;;
3789;SDS011;1910;49.042;9.028;2023-04-23T03:51:15;3.00;;;2.10;;
3789;SDS011;1910;49.042;9.028;2023-04-23T03:53:41;2.17;;;1.73;;
3789;SDS011;1910;49.042;9.028;2023-04-23T03:56:07;1.70;;;1.47;;
3789;SDS011;1910;49.042;9.028;2023-04-23T03:58:33;2.40;;;2.00;;
3789;SDS011;1910;49.042;9.028;2023-04-23T04:00:58;5.10;;;1.60;;
3789;SDS011;1910;49.042;9.028;2023-04-23T04:03:24;3.27;;;2.20;;
3789;SDS011;1910;49.042;9.028;2023-04-23T04:05:50;1.92;;;1.70;;
3789;SDS011;1910;49.042;9.028;2023-04-23T04:08:16;2.23;;;1.73;;
3789;SDS011;1910;49.042;9.028;2023-04-23T04:10:42;5.30;;;1.50;;
3789;SDS011;1910;49.042;9.028;2023-04-23T04:13:08;5.90;;;1.50;;
3789;SDS011;1910;49.042;9.028;2023-04-23T04:15:34;1.70;;;1.60;;
3789;SDS011;1910;49.042;9.028;2023-04-23T04:18:00;2.83;;;1.97;;
3789;SDS011;1910;49.042;9.028;2023-04-23T04:20:26;3.17;;;1.90;;
3789;SDS011;1910;49.042;9.028;2023-04-23T04:22:55;4.53;;;3.92;;
3789;SDS011;1910;49.042;9.028;2023-04-23T04:25:21;3.40;;;2.70;;
3789;SDS011;1910;49.042;9.028;2023-04-23T04:27:48;1.85;;;1.75;;
3789;SDS011;1910;49.042;9.028;2023-04-23T04:30:14;2.70;;;1.50;;
3789;SDS011;1910;49.042;9.028;2023-04-23T04:32:41;2.33;;;1.80;;
3789;SDS011;1910;49.042;9.028;2023-04-23T04:35:09;2.63;;;1.75;;
3789;SDS011;1910;49.042;9.028;2023-04-23T04:37:36;2.47;;;2.20;;
3789;SDS011;1910;49.042;9.028;2023-04-23T04:40:02;2.47;;;2.07;;
3789;SDS011;1910;49.042;9.028;2023-04-23T04:42:32;2.10;;;1.80;;
3789;SDS011;1910;49.042;9.028;2023-04-23T04:44:57;1.50;;;1.37;;
3789;SDS011;1910;49.042;9.028;2023-04-23T04:47:24;4.78;;;1.80;;
3789;SDS011;1910;49.042;9.028;2023-04-23T04:49:49;2.65;;;1.98;;
3789;SDS011;1910;49.042;9.028;2023-04-23T04:52:15;2.95;;;1.70;;
3789;SDS011;1910;49.042;9.028;2023-04-23T04:54:42;2.10;;;1.90;;
3789;SDS011;1910;49.042;9.028;2023-04-23T04:57:08;2.60;;;1.90;;
3789;SDS011;1910;49.042;9.028;2023-04-23T04:59:34;1.67;;;1.58;;
3789;SDS011;1910;49.042;9.028;2023-04-23T05:02:00;2.20;;;1.57;;
3789;SDS011;1910;49.042;9.028;2023-04-23T05:04:26;3.40;;;1.80;;
3789;SDS011;1910;49.042;9.028;2023-04-23T05:06:52;2.03;;;1.63;;
3789;SDS011;1910;49.042;9.028;2023-04-23T05:09:18;1.90;;;1.50;;
3789;SDS011;1910;49.042;9.028;2023-04-23T05:11:44;2.72;;;1.65;;
3789;SDS011;1910;49.042;9.028;2023-04-23T05:14:10;1.70;;;1.60;;
3789;SDS011;1910;49.042;9.028;2023-04-23T05:16:36;1.63;;;1.50;;
3789;SDS011;1910;49.042;9.028;2023-04-23T05:19:02;1.67;;;1.30;;
3789;SDS011;1910;49.042;9.028;2023-04-23T05:21:28;1.90;;;1.67;;
3789;SDS011;1910;49.042;9.028;2023-04-23T05:23:55;3.05;;;1.55;;
3789;SDS011;1910;49.042;9.028;2023-04-23T05:26:21;2.23;;;1.47;;
3789;SDS011;1910;49.042;9.028;2023-04-23T05:28:47;1.37;;;1.23;;
3789;SDS011;1910;49.042;9.028;2023-04-23T05:31:13;2.30;;;1.40;;
3789;SDS011;1910;49.042;9.028;2023-04-23T05:33:39;1.13;;;1.02;;
3789;SDS011;1910;49.042;9.028;2023-04-23T05:36:07;2.08;;;1.55;;
3789;SDS011;1910;49.042;9.028;2023-04-23T05:38:33;3.00;;;1.93;;
3789;SDS011;1910;49.042;9.028;2023-04-23T05:40:59;1.53;;;1.20;;
3789;SDS011;1910;49.042;9.028;2023-04-23T05:43:25;1.90;;;1.70;;
3789;SDS011;1910;49.042;9.028;2023-04-23T05:45:51;2.47;;;1.33;;
3789;SDS011;1910;49.042;9.028;2023-04-23T05:48:17;2.17;;;1.97;;
3789;SDS011;1910;49.042;9.028;2023-04-23T05:50:43;3.10;;;1.83;;
3789;SDS011;1910;49.042;9.028;2023-04-23T05:53:09;2.03;;;1.67;;
3789;SDS011;1910;49.042;9.028;2023-04-23T05:55:35;1.10;;;1.00;;
3789;SDS011;1910;49.042;9.028;2023-04-23T05:58:00;5.30;;;2.17;;
3789;SDS011;1910;49.042;9.028;2023-04-23T06:00:26;1.30;;;1.20;;
3789;SDS011;1910;49.042;9.028;2023-04-23T06:02:53;2.20;;;1.75;;
3789;SDS011;1910;49.042;9.028;2023-04-23T06:05:18;2.90;;;1.53;;
3789;SDS011;1910;49.042;9.028;2023-04-23T06:07:45;1.80;;;1.70;;
3789;SDS011;1910;49.042;9.028;2023-04-23T06:10:11;3.45;;;1.75;;
3789;SDS011;1910;49.042;9.028;2023-04-23T06:12:37;2.25;;;1.98;;
3789;SDS011;1910;49.042;9.028;2023-04-23T06:15:05;3.83;;;1.60;;
3789;SDS011;1910;49.042;9.028;2023-04-23T06:17:31;1.83;;;1.73;;
3789;SDS011;1910;49.042;9.028;2023-04-23T06:19:57;2.57;;;1.67;;
3789;SDS011;1910;49.042;9.028;2023-04-23T06:22:24;2.63;;;1.40;;
3789;SDS011;1910;49.042;9.028;2023-04-23T06:24:50;2.50;;;1.40;;
3789;SDS011;1910;49.042;9.028;2023-04-23T06:27:18;1.88;;;1.42;;
3789;SDS011;1910;49.042;9.028;2023-04-23T06:29:44;2.20;;;1.10;;
3789;SDS011;1910;49.042;9.028;2023-04-23T06:32:10;1.33;;;1.23;;
3789;SDS011;1910;49.042;9.028;2023-04-23T06:34:36;3.85;;;1.27;;
3789;SDS011;1910;49.042;9.028;2023-04-23T06:37:02;1.97;;;1.40;;
3789;SDS011;1910;49.042;9.028;2023-04-23T06:39:27;1.30;;;1.20;;
3789;SDS011;1910;49.042;9.028;2023-04-23T06:41:53;1.20;;;0.97;;
3789;SDS011;1910;49.042;9.028;2023-04-23T06:44:20;1.33;;;0.95;;
3789;SDS011;1910;49.042;9.028;2023-04-23T06:46:46;2.17;;;1.40;;
3789;SDS011;1910;49.042;9.028;2023-04-23T06:49:12;1.80;;;1.17;;
3789;SDS011;1910;49.042;9.028;2023-04-23T06:51:38;2.40;;;1.00;;
3789;SDS011;1910;49.042;9.028;2023-04-23T06:54:04;1.43;;;1.30;;
3789;SDS011;1910;49.042;9.028;2023-04-23T06:56:30;1.27;;;1.17;;
3789;SDS011;1910;49.042;9.028;2023-04-23T06:58:56;1.70;;;1.40;;
3789;SDS011;1910;49.042;9.028;2023-04-23T07:01:22;2.43;;;1.60;;
3789;SDS011;1910;49.042;9.028;2023-04-23T07:03:48;1.77;;;1.30;;
3789;SDS011;1910;49.042;9.028;2023-04-23T07:06:15;4.13;;;2.07;;
3789;SDS011;1910;49.042;9.028;2023-04-23T07:08:42;3.27;;;1.00;;
3789;SDS011;1910;49.042;9.028;2023-04-23T07:11:09;1.87;;;1.30;;
3789;SDS011;1910;49.042;9.028;2023-04-23T07:13:35;3.63;;;2.70;;
3789;SDS011;1910;49.042;9.028;2023-04-23T07:16:01;2.70;;;2.43;;
3789;SDS011;1910;49.042;9.028;2023-04-23T07:18:27;2.40;;;2.17;;
3789;SDS011;1910;49.042;9.028;2023-04-23T07:20:53;1.67;;;1.10;;
3789;SDS011;1910;49.042;9.028;2023-04-23T07:23:19;1.70;;;1.43;;
3789;SDS011;1910;49.042;9.028;2023-04-23T07:25:45;1.50;;;1.40;;
3789;SDS011;1910;49.042;9.028;2023-04-23T07:28:11;2.20;;;2.00;;
3789;SDS011;1910;49.042;9.028;2023-04-23T07:30:37;3.53;;;2.63;;
3789;SDS011;1910;49.042;9.028;2023-04-23T07:33:03;2.20;;;2.03;;
3789;SDS011;1910;49.042;9.028;2023-04-23T07:35:29;2.40;;;2.17;;
3789;SDS011;1910;49.042;9.028;2023-04-23T07:37:55;3.43;;;1.80;;
3789;SDS011;1910;49.042;9.028;2023-04-23T07:40:22;3.00;;;2.03;;
3789;SDS011;1910;49.042;9.028;2023-04-23T07:42:49;2.00;;;1.63;;
3789;SDS011;1910;49.042;9.028;2023-04-23T07:45:15;3.03;;;2.00;;
3789;SDS011;1910;49.042;9.028;2023-04-23T07:47:41;2.17;;;1.97;;
3789;SDS011;1910;49.042;9.028;2023-04-23T07:50:07;2.50;;;1.80;;
3789;SDS011;1910;49.042;9.028;2023-04-23T07:52:33;4.20;;;2.60;;
3789;SDS011;1910;49.042;9.028;2023-04-23T07:54:59;3.37;;;2.03;;
3789;SDS011;1910;49.042;9.028;2023-04-23T07:57:25;2.60;;;2.13;;
3789;SDS011;1910;49.042;9.028;2023-04-23T07:59:51;2.73;;;2.17;;
3789;SDS011;1910;49.042;9.028;2023-04-23T08:02:16;5.93;;;2.90;;
3789;SDS011;1910;49.042;9.028;2023-04-23T08:04:47;3.90;;;3.10;;
3789;SDS011;1910;49.042;9.028;2023-04-23T08:07:13;4.07;;;2.80;;
3789;SDS011;1910;49.042;9.028;2023-04-23T08:09:39;3.97;;;2.30;;
3789;SDS011;1910;49.042;9.028;2023-04-23T08:12:04;2.90;;;1.90;;
3789;SDS011;1910;49.042;9.028;2023-04-23T08:14:30;3.43;;;1.87;;
3789;SDS011;1910;49.042;9.028;2023-04-23T08:16:56;2.60;;;1.97;;
3789;SDS011;1910;49.042;9.028;2023-04-23T08:19:22;2.13;;;1.50;;
3789;SDS011;1910;49.042;9.028;2023-04-23T08:21:48;1.93;;;1.63;;
3789;SDS011;1910;49.042;9.028;2023-04-23T08:24:14;1.70;;;1.57;;
3789;SDS011;1910;49.042;9.028;2023-04-23T08:26:43;2.47;;;2.10;;
3789;SDS011;1910;49.042;9.028;2023-04-23T08:29:08;2.23;;;2.00;;
3789;SDS011;1910;49.042;9.028;2023-04-23T08:31:34;2.73;;;2.17;;
3789;SDS011;1910;49.042;9.028;2023-04-23T08:34:01;2.50;;;2.30;;
3789;SDS011;1910;49.042;9.028;2023-04-23T08:36:27;2.10;;;1.90;;
3789;SDS011;1910;49.042;9.028;2023-04-23T08:38:53;3.00;;;1.70;;
3789;SDS011;1910;49.042;9.028;2023-04-23T08:41:20;3.77;;;2.33;;
3789;SDS011;1910;49.042;9.028;2023-04-23T08:43:53;3.03;;;1.97;;
3789;SDS011;1910;49.042;9.028;2023-04-23T08:46:30;3.00;;;2.40;;
3789;SDS011;1910;49.042;9.028;2023-04-23T08:48:56;2.53;;;2.10;;
3789;SDS011;1910;49.042;9.028;2023-04-23T08:51:26;3.40;;;2.20;;
3789;SDS011;1910;49.042;9.028;2023-04-23T08:53:57;4.53;;;1.53;;
3789;SDS011;1910;49.042;9.028;2023-04-23T08:56:24;3.67;;;2.20;;
3789;SDS011;1910;49.042;9.028;2023-04-23T08:58:51;4.33;;;2.47;;
3789;SDS011;1910;49.042;9.028;2023-04-23T09:01:20;2.73;;;1.77;;
3789;SDS011;1910;49.042;9.028;2023-04-23T09:03:46;2.63;;;1.97;;
3789;SDS011;1910;49.042;9.028;2023-04-23T09:06:12;3.03;;;2.50;;
3789;SDS011;1910;49.042;9.028;2023-04-23T09:08:38;3.30;;;2.30;;
3789;SDS011;1910;49.042;9.028;2023-04-23T09:11:04;2.53;;;2.33;;
3789;SDS011;1910;49.042;9.028;2023-04-23T09:13:32;1.90;;;1.60;;
3789;SDS011;1910;49.042;9.028;2023-04-23T09:15:58;2.97;;;1.93;;
3789;SDS011;1910;49.042;9.028;2023-04-23T09:18:25;3.50;;;1.63;;
3789;SDS011;1910;49.042;9.028;2023-04-23T09:20:51;2.73;;;2.40;;
3789;SDS011;1910;49.042;9.028;2023-04-23T09:23:17;2.40;;;2.07;;
3789;SDS011;1910;49.042;9.028;2023-04-23T09:25:46;2.73;;;2.10;;
3789;SDS011;1910;49.042;9.028;2023-04-23T09:28:12;2.20;;;1.90;;
3789;SDS011;1910;49.042;9.028;2023-04-23T09:30:41;2.57;;;2.03;;
3789;SDS011;1910;49.042;9.028;2023-04-23T09:33:09;2.73;;;2.20;;
3789;SDS011;1910;49.042;9.028;2023-04-23T09:35:36;2.20;;;2.00;;
3789;SDS011;1910;49.042;9.028;2023-04-23T09:38:02;2.17;;;1.67;;
3789;SDS011;1910;49.042;9.028;2023-04-23T09:40:31;5.53;;;1.80;;
3789;SDS011;1910;49.042;9.028;2023-04-23T09:42:57;1.80;;;1.60;;
3789;SDS011;1910;49.042;9.028;2023-04-23T09:45:23;2.00;;;1.60;;
3789;SDS011;1910;49.042;9.028;2023-04-23T09:47:50;2.33;;;1.60;;
3789;SDS011;1910;49.042;9.028;2023-04-23T09:50:18;3.13;;;2.17;;
3789;SDS011;1910;49.042;9.028;2023-04-23T09:53:04;2.40;;;1.37;;
3789;SDS011;1910;49.042;9.028;2023-04-23T09:55:34;2.30;;;2.10;;
3789;SDS011;1910;49.042;9.028;2023-04-23T09:58:03;2.23;;;1.70;;
3789;SDS011;1910;49.042;9.028;2023-04-23T10:00:36;2.83;;;2.20;;
3789;SDS011;1910;49.042;9.028;2023-04-23T10:03:02;2.63;;;2.30;;
3789;SDS011;1910;49.042;9.028;2023-04-23T10:05:28;3.43;;;2.20;;
3789;SDS011;1910;49.042;9.028;2023-04-23T10:07:55;4.70;;;2.50;;
3789;SDS011;1910;49.042;9.028;2023-04-23T10:10:23;3.40;;;1.83;;
3789;SDS011;1910;49.042;9.028;2023-04-23T10:12:50;6.07;;;2.30;;
3789;SDS011;1910;49.042;9.028;2023-04-23T10:15:22;3.17;;;2.50;;
3789;SDS011;1910;49.042;9.028;2023-04-23T10:17:49;3.63;;;1.90;;
3789;SDS011;1910;49.042;9.028;2023-04-23T10:20:15;4.50;;;3.00;;
3789;SDS011;1910;49.042;9.028;2023-04-23T10:22:42;3.20;;;2.10;;
3789;SDS011;1910;49.042;9.028;2023-04-23T10:25:10;3.73;;;1.90;;
3789;SDS011;1910;49.042;9.028;2023-04-23T10:27:37;3.13;;;1.80;;
3789;SDS011;1910;49.042;9.028;2023-04-23T10:30:05;4.23;;;2.33;;
3789;SDS011;1910;49.042;9.028;2023-04-23T10:32:34;2.03;;;1.83;;
3789;SDS011;1910;49.042;9.028;2023-04-23T10:35:00;1.90;;;1.63;;
3789;SDS011;1910;49.042;9.028;2023-04-23T10:37:26;2.33;;;2.13;;
3789;SDS011;1910;49.042;9.028;2023-04-23T10:39:53;2.43;;;2.23;;
3789;SDS011;1910;49.042;9.028;2023-04-23T10:42:20;3.40;;;1.80;;
3789;SDS011;1910;49.042;9.028;2023-04-23T10:44:47;2.80;;;2.33;;
3789;SDS011;1910;49.042;9.028;2023-04-23T10:47:13;2.63;;;1.73;;
3789;SDS011;1910;49.042;9.028;2023-04-23T10:49:40;2.30;;;1.83;;
3789;SDS011;1910;49.042;9.028;2023-04-23T10:52:09;3.00;;;2.03;;
3789;SDS011;1910;49.042;9.028;2023-04-23T10:54:39;3.73;;;2.53;;
3789;SDS011;1910;49.042;9.028;2023-04-23T10:57:06;2.63;;;1.57;;
3789;SDS011;1910;49.042;9.028;2023-04-23T10:59:33;1.80;;;1.37;;
3789;SDS011;1910;49.042;9.028;2023-04-23T11:02:06;4.93;;;1.47;;
3789;SDS011;1910;49.042;9.028;2023-04-23T11:04:46;3.30;;;1.60;;
3789;SDS011;1910;49.042;9.028;2023-04-23T11:07:20;3.63;;;1.90;;
3789;SDS011;1910;49.042;9.028;2023-04-23T11:09:51;3.80;;;2.23;;
3789;SDS011;1910;49.042;9.028;2023-04-23T11:14:54;2.17;;;1.97;;
3789;SDS011;1910;49.042;9.028;2023-04-23T11:18:02;2.47;;;2.13;;
3789;SDS011;1910;49.042;9.028;2023-04-23T11:22:42;3.30;;;2.40;;
3789;SDS011;1910;49.042;9.028;2023-04-23T11:25:13;4.97;;;1.80;;
3789;SDS011;1910;49.042;9.028;2023-04-23T11:27:43;3.73;;;2.13;;
3789;SDS011;1910;49.042;9.028;2023-04-23T11:32:45;2.23;;;1.80;;
3789;SDS011;1910;49.042;9.028;2023-04-23T11:35:13;4.13;;;2.20;;
3789;SDS011;1910;49.042;9.028;2023-04-23T11:37:39;2.40;;;1.93;;
3789;SDS011;1910;49.042;9.028;2023-04-23T11:40:16;2.50;;;2.30;;
3789;SDS011;1910;49.042;9.028;2023-04-23T11:42:47;2.40;;;1.80;;
3789;SDS011;1910;49.042;9.028;2023-04-23T11:45:24;6.60;;;2.53;;
3789;SDS011;1910;49.042;9.028;2023-04-23T11:47:52;3.20;;;1.90;;
3789;SDS011;1910;49.042;9.028;2023-04-23T11:50:23;2.10;;;1.77;;
3789;SDS011;1910;49.042;9.028;2023-04-23T11:52:50;2.27;;;1.90;;
3789;SDS011;1910;49.042;9.028;2023-04-23T11:55:16;1.70;;;1.60;;
3789;SDS011;1910;49.042;9.028;2023-04-23T11:57:43;2.10;;;1.90;;
3789;SDS011;1910;49.042;9.028;2023-04-23T12:00:15;1.93;;;1.60;;
3789;SDS011;1910;49.042;9.028;2023-04-23T12:02:52;2.73;;;1.67;;
3789;SDS011;1910;49.042;9.028;2023-04-23T12:05:18;2.27;;;1.43;;
3789;SDS011;1910;49.042;9.028;2023-04-23T12:07:54;2.10;;;1.50;;
3789;SDS011;1910;49.042;9.028;2023-04-23T12:10:48;3.67;;;1.80;;
3789;SDS011;1910;49.042;9.028;2023-04-23T12:13:16;4.00;;;1.70;;
3789;SDS011;1910;49.042;9.028;2023-04-23T12:15:43;2.30;;;1.57;;
3789;SDS011;1910;49.042;9.028;2023-04-23T12:18:10;2.33;;;1.60;;
3789;SDS011;1910;49.042;9.028;2023-04-23T12:20:36;1.63;;;1.47;;
3789;SDS011;1910;49.042;9.028;2023-04-23T12:23:05;1.47;;;1.10;;
3789;SDS011;1910;49.042;9.028;2023-04-23T12:25:31;1.63;;;1.47;;
3789;SDS011;1910;49.042;9.028;2023-04-23T12:28:01;2.40;;;1.03;;
3789;SDS011;1910;49.042;9.028;2023-04-23T12:30:32;3.43;;;2.00;;
3789;SDS011;1910;49.042;9.028;2023-04-23T12:32:59;1.70;;;1.43;;
3789;SDS011;1910;49.042;9.028;2023-04-23T12:35:41;2.83;;;1.50;;
3789;SDS011;1910;49.042;9.028;2023-04-23T12:38:24;1.93;;;1.63;;
3789;SDS011;1910;49.042;9.028;2023-04-23T12:40:51;1.63;;;1.00;;
3789;SDS011;1910;49.042;9.028;2023-04-23T12:43:23;1.73;;;1.23;;
3789;SDS011;1910;49.042;9.028;2023-04-23T12:45:49;1.00;;;0.90;;
3789;SDS011;1910;49.042;9.028;2023-04-23T12:48:16;1.13;;;1.03;;
3789;SDS011;1910;49.042;9.028;2023-04-23T12:50:43;2.37;;;1.00;;
3789;SDS011;1910;49.042;9.028;2023-04-23T12:53:10;1.40;;;1.00;;
3789;SDS011;1910;49.042;9.028;2023-04-23T12:55:35;1.43;;;1.00;;
3789;SDS011;1910;49.042;9.028;2023-04-23T12:58:03;1.40;;;1.00;;
3789;SDS011;1910;49.042;9.028;2023-04-23T13:00:29;1.37;;;0.80;;
3789;SDS011;1910;49.042;9.028;2023-04-23T13:02:55;1.27;;;0.80;;
3789;SDS011;1910;49.042;9.028;2023-04-23T13:05:21;0.80;;;0.80;;
3789;SDS011;1910;49.042;9.028;2023-04-23T13:07:47;1.17;;;1.07;;
3789;SDS011;1910;49.042;9.028;2023-04-23T13:10:13;2.70;;;1.10;;
3789;SDS011;1910;49.042;9.028;2023-04-23T13:12:39;2.40;;;1.43;;
3789;SDS011;1910;49.042;9.028;2023-04-23T13:15:06;3.00;;;1.10;;
3789;SDS011;1910;49.042;9.028;2023-04-23T13:17:33;1.07;;;0.77;;
3789;SDS011;1910;49.042;9.028;2023-04-23T13:19:59;1.17;;;1.00;;
3789;SDS011;1910;49.042;9.028;2023-04-23T13:22:25;1.30;;;1.10;;
3789;SDS011;1910;49.042;9.028;2023-04-23T13:24:56;1.73;;;0.70;;
3789;SDS011;1910;49.042;9.028;2023-04-23T13:27:26;1.60;;;0.97;;
3789;SDS011;1910;49.042;9.028;2023-04-23T13:29:53;1.83;;;0.80;;
3789;SDS011;1910;49.042;9.028;2023-04-23T13:32:19;2.30;;;1.10;;
3789;SDS011;1910;49.042;9.028;2023-04-23T13:34:45;3.93;;;1.17;;
3789;SDS011;1910;49.042;9.028;2023-04-23T13:37:11;1.20;;;0.90;;
3789;SDS011;1910;49.042;9.028;2023-04-23T13:39:37;2.50;;;1.07;;
3789;SDS011;1910;49.042;9.028;2023-04-23T13:42:05;1.20;;;1.00;;
3789;SDS011;1910;49.042;9.028;2023-04-23T13:44:31;1.03;;;0.93;;
3789;SDS011;1910;49.042;9.028;2023-04-23T13:46:57;1.43;;;1.23;;
3789;SDS011;1910;49.042;9.028;2023-04-23T13:49:26;1.30;;;1.10;;
3789;SDS011;1910;49.042;9.028;2023-04-23T13:51:55;2.43;;;0.97;;
3789;SDS011;1910;49.042;9.028;2023-04-23T13:54:24;1.00;;;0.90;;
3789;SDS011;1910;49.042;9.028;2023-04-23T13:56:52;1.20;;;1.00;;
3789;SDS011;1910;49.042;9.028;2023-04-23T13:59:18;1.23;;;1.13;;
3789;SDS011;1910;49.042;9.028;2023-04-23T14:01:45;1.00;;;0.90;;
3789;SDS011;1910;49.042;9.028;2023-04-23T14:04:13;1.23;;;1.13;;
3789;SDS011;1910;49.042;9.028;2023-04-23T14:06:39;0.97;;;0.87;;
3789;SDS011;1910;49.042;9.028;2023-04-23T14:09:05;4.40;;;0.90;;
3789;SDS011;1910;49.042;9.028;2023-04-23T14:11:31;1.37;;;0.90;;
3789;SDS011;1910;49.042;9.028;2023-04-23T14:13:57;1.97;;;1.20;;
3789;SDS011;1910;49.042;9.028;2023-04-23T14:16:25;1.77;;;0.90;;
3789;SDS011;1910;49.042;9.028;2023-04-23T14:18:50;0.90;;;0.90;;
3789;SDS011;1910;49.042;9.028;2023-04-23T14:21:16;1.87;;;0.93;;
3789;SDS011;1910;49.042;9.028;2023-04-23T14:23:43;1.43;;;1.07;;
3789;SDS011;1910;49.042;9.028;2023-04-23T14:26:09;2.07;;;1.03;;
3789;SDS011;1910;49.042;9.028;2023-04-23T14:29:16;1.63;;;1.10;;
3789;SDS011;1910;49.042;9.028;2023-04-23T14:31:47;1.10;;;1.00;;
3789;SDS011;1910;49.042;9.028;2023-04-23T14:34:12;1.30;;;1.10;;
3789;SDS011;1910;49.042;9.028;2023-04-23T14:36:38;1.97;;;1.40;;
3789;SDS011;1910;49.042;9.028;2023-04-23T14:39:04;2.33;;;1.37;;
3789;SDS011;1910;49.042;9.028;2023-04-23T14:41:31;1.73;;;1.10;;
3789;SDS011;1910;49.042;9.028;2023-04-23T14:43:58;2.10;;;0.93;;
3789;SDS011;1910;49.042;9.028;2023-04-23T14:46:27;1.67;;;0.97;;
3789;SDS011;1910;49.042;9.028;2023-04-23T14:48:53;2.10;;;0.93;;
3789;SDS011;1910;49.042;9.028;2023-04-23T14:51:19;1.00;;;0.90;;
3789;SDS011;1910;49.042;9.028;2023-04-23T14:53:44;1.87;;;1.20;;
3789;SDS011;1910;49.042;9.028;2023-04-23T14:56:10;1.57;;;1.00;;
3789;SDS011;1910;49.042;9.028;2023-04-23T14:58:36;2.00;;;0.80;;
3789;SDS011;1910;49.042;9.028;2023-04-23T15:01:02;1.97;;;1.27;;
3789;SDS011;1910;49.042;9.028;2023-04-23T15:03:28;1.90;;;0.83;;
3789;SDS011;1910;49.042;9.028;2023-04-23T15:05:54;1.73;;;1.10;;
3789;SDS011;1910;49.042;9.028;2023-04-23T15:08:20;1.90;;;1.00;;
3789;SDS011;1910;49.042;9.028;2023-04-23T15:10:46;1.63;;;1.20;;
3789;SDS011;1910;49.042;9.028;2023-04-23T15:18:14;1.03;;;0.87;;
3789;SDS011;1910;49.042;9.028;2023-04-23T15:20:40;1.00;;;1.00;;
3789;SDS011;1910;49.042;9.028;2023-04-23T15:23:06;0.80;;;0.80;;
3789;SDS011;1910;49.042;9.028;2023-04-23T15:25:32;1.40;;;1.20;;
3789;SDS011;1910;49.042;9.028;2023-04-23T15:27:59;2.87;;;1.17;;